• Join FlightAware (Why Join?)
  • Login
  • US Flag 
02:13AM EDT


 

Airport Tracker/Info


-or-


 

Live Flight TrackerFlight Track Log ✈ OPT429 ✈ 27-Jun-2014 ✈ KSBN - KJZI

Flight Track Log - Related Links

Times and Time Zones

All times are in EDT time to prevent confusion due to time zone crossing. See the OPT429 flight status page for this flight to view local times or setup timezone preferences in your user account.

Time Position Orientation Groundspeed Altitude Reporting Facility
EDT Latitude Longitude Course Direction KTS MPH feet Rate Location/Type
01:38PM 41.6942 -86.2781 166° South 163 188 2,500  Level Chicago Center
01:39PM 41.6433 -86.2447 154° Southeast 198 228 4,700 2,340 Climbing Chicago Center
01:41PM 41.5783 -86.2022 154° Southeast 255 293 7,400 2,460 Climbing Chicago Center
01:42PM 41.5086 -86.1594 155° Southeast 274 315 9,900 1,800 Climbing Chicago Center
01:43PM 41.4092 -86.0981 155° Southeast 330 380 11,200 1,740 Climbing Chicago Center
01:44PM 41.1518 -85.9673 166° South  Level FlightAware Approximate
01:44PM 41.3225 -86.0456 156° South 341 392 13,500  Level Chicago Center
01:45PM 41.2367 -85.9939 156° South 341 392 15,900 2,220 Climbing Chicago Center
01:46PM 41.1531 -85.9417 155° Southeast 337 388 18,100 1,980 Climbing Chicago Center
01:47PM 41.0686 -85.8922 156° South 335 386 20,100 2,040 Climbing Chicago Center
01:48PM 40.9642 -85.8289 155° Southeast 341 392 22,400 1,980 Climbing Chicago Center
01:49PM 40.8761 -85.7753 155° Southeast 347 399 24,200 1,740 Climbing Chicago Center
01:50PM 40.7836 -85.7572 172° South 341 392 26,100 1,800 Climbing Chicago Center
01:51PM 40.6903 -85.7575 180° South 338 389 28,000 1,860 Climbing Chicago Center
01:52PM 40.5931 -85.7036 157° South 345 397 30,000 1,680 Climbing Chicago Center
01:53PM 40.5056 -85.6467 154° Southeast 348 400 31,500 1,200 Climbing Chicago Center
01:54PM 40.4150 -85.5875 154° Southeast 362 417 32,600 1,020 Climbing Chicago Center
01:55PM 40.3178 -85.5250 154° Southeast 385 443 33,700 900 Climbing Chicago Center
01:56PM 40.2175 -85.4614 154° Southeast 396 456 34,500 780 Climbing Indianapolis Center
01:57PM 40.0919 -85.3794 153° Southeast 414 476 35,400 780 Climbing Indianapolis Center
01:58PM 39.9828 -85.3092 154° Southeast 427 491 36,200 720 Climbing Indianapolis Center
01:59PM 39.8714 -85.2392 154° Southeast 437 503 37,000 720 Climbing Indianapolis Center
02:00PM 39.7672 -85.1492 146° Southeast 443 510 37,700 720 Climbing Indianapolis Center
02:01PM 39.6664 -85.0567 145° Southeast 443 510 38,600 960 Climbing Indianapolis Center
02:02PM 39.5631 -84.9742 148° Southeast 441 507 39,700 1,020 Climbing Indianapolis Center
02:03PM 39.4600 -84.9006 151° Southeast 429 494 40,800 600 Climbing Indianapolis Center
02:04PM 39.3508 -84.8211 151° Southeast 421 484 41,000 60 Climbing Indianapolis Center
02:05PM 39.2458 -84.7469 151° Southeast 427 491 41,000  Level Indianapolis Center
02:06PM 39.1208 -84.6581 151° Southeast 427 491 41,000  Level Indianapolis Center
02:07PM 39.0172 -84.5836 151° Southeast 428 493 41,000  Level Indianapolis Center
02:08PM 38.9125 -84.5094 151° Southeast 428 493 41,000  Level Indianapolis Center
02:09PM 38.8075 -84.4358 151° Southeast 429 494 41,000  Level Indianapolis Center
02:11PM 38.7022 -84.3608 151° Southeast 430 495 41,000  Level Indianapolis Center
02:12PM 38.5778 -84.2747 152° Southeast 430 495 41,000  Level Indianapolis Center
02:13PM 38.4706 -84.2017 152° Southeast 431 496 41,000  Level Indianapolis Center
02:14PM 38.3647 -84.1261 151° Southeast 433 498 41,000  Level Indianapolis Center
02:15PM 38.2583 -84.0522 151° Southeast 433 498 41,000  Level Indianapolis Center
02:16PM 38.1522 -83.9797 152° Southeast 433 498 41,000  Level Indianapolis Center
02:17PM 38.0306 -83.8950 151° Southeast 431 496 41,000  Level Indianapolis Center
02:18PM 37.9253 -83.8228 152° Southeast 430 495 41,000  Level Indianapolis Center
02:19PM 37.8208 -83.7519 152° Southeast 429 494 41,000  Level Indianapolis Center
02:20PM 37.7167 -83.6808 152° Southeast 427 491 41,000  Level Indianapolis Center
02:21PM 37.6133 -83.6092 151° Southeast 426 490 41,000  Level Indianapolis Center
02:22PM 37.4906 -83.5272 152° Southeast 426 490 41,000  Level Indianapolis Center
02:23PM 37.3867 -83.4581 152° Southeast 426 490 41,000  Level Indianapolis Center
02:24PM 37.2817 -83.3875 152° Southeast 426 490 41,000  Level Indianapolis Center
02:25PM 37.1767 -83.3167 152° Southeast 426 490 41,000  Level Indianapolis Center
02:26PM 37.0719 -83.2481 152° Southeast 426 490 41,000  Level Indianapolis Center
02:27PM 36.9494 -83.1678 152° Southeast 426 490 41,000  Level Indianapolis Center
02:28PM 36.8447 -83.0975 152° Southeast 429 494 41,000  Level Indianapolis Center
02:29PM 36.7397 -83.0283 152° Southeast 430 495 41,000  Level Indianapolis Center
02:30PM 36.6353 -82.9583 152° Southeast 430 495 41,000  Level Indianapolis Center
02:31PM 36.4947 -82.8689 153° Southeast 429 494 41,000  Level Atlanta Center
02:32PM 36.3900 -82.7981 151° Southeast 429 494 41,000  Level Atlanta Center
02:33PM 36.2847 -82.7278 152° Southeast 429 494 41,000  Level Atlanta Center
02:34PM 36.1797 -82.6600 152° Southeast 435 501 41,000  Level Atlanta Center
02:35PM 36.0728 -82.5925 153° Southeast 435 501 41,000 -360 Level Atlanta Center
02:36PM 35.9803 -82.5325 152° Southeast 435 501 40,300 -900 Descending Atlanta Center
02:37PM 35.8750 -82.4653 153° Southeast 430 495 39,200 -1,140 Descending Atlanta Center
02:38PM 35.7678 -82.3956 152° Southeast 430 495 38,100 -1,200 Descending Atlanta Center
02:39PM 35.6625 -82.3314 154° Southeast 424 488 36,900 -1,200 Descending Atlanta Center
02:40PM 35.5572 -82.2619 152° Southeast 429 494 35,700 -1,080 Descending Atlanta Center
02:41PM 35.4331 -82.1858 153° Southeast 441 507 34,800 -720 Descending Atlanta Center
02:42PM 35.3233 -82.1144 152° Southeast 446 513 34,300 -420 Descending Atlanta Center
02:43PM 35.2117 -82.0458 153° Southeast 446 513 34,000 -180 Descending Atlanta Center
02:44PM 35.1042 -81.9747 152° Southeast 446 513 34,000 -900 Level Atlanta Center
02:45PM 34.9903 -81.9092 155° Southeast 451 519 32,300 -2,040 Descending Atlanta Center
02:46PM 34.8703 -81.8464 157° South 456 525 30,000 -1,260 Descending Atlanta Center
02:48PM 34.6844 -81.7489 157° South 461 531 28,900 -900 Descending Jacksonville Center
02:49PM 34.5714 -81.6897 157° South 456 525 27,600 -960 Descending Jacksonville Center
02:50PM 34.4603 -81.6283 156° South 445 512 27,000 -300 Descending Jacksonville Center
02:51PM 34.3511 -81.5722 157° South 437 503 27,000 -300 Level Jacksonville Center
02:52PM 34.2336 -81.5111 157° South 443 510 26,500 -1,020 Descending Jacksonville Center
02:53PM 34.1161 -81.4528 158° South 449 517 25,000 -1,500 Descending Jacksonville Center
02:54PM 33.9986 -81.3897 156° South 455 524 23,500 -1,500 Descending Jacksonville Center
02:55PM 33.8911 -81.3164 150° Southeast 446 513 22,100 -1,500 Descending Jacksonville Center
02:56PM 33.7983 -81.2206 139° Southeast 439 505 20,600 -1,620 Descending Jacksonville Center
02:57PM 33.7008 -81.1225 140° Southeast 432 497 18,900 -1,320 Descending Jacksonville Center
02:58PM 33.6161 -81.0369 140° Southeast 414 476 18,000 -840 Descending Jacksonville Center
02:59PM 33.5314 -80.9517 140° Southeast 408 470 17,300 -1,080 Descending Jacksonville Center
03:00PM 33.4444 -80.8664 141° Southeast 408 470 15,900 -1,500 Descending Jacksonville Center
03:01PM 33.3681 -80.7911 141° Southeast 391 450 14,300 -1,560 Descending Jacksonville Center
03:02PM 33.2964 -80.7456 152° Southeast 352 405 12,800 -1,740 Descending Jacksonville Center
03:03PM 33.2189 -80.7225 166° South 295 339 10,900 -1,920 Descending Jacksonville Center
03:04PM 33.1572 -80.6644 142° Southeast 289 333 9,000 -960 Descending Jacksonville Center
03:05PM 33.1039 -80.6014 135° Southeast 278 320 9,000  Level Jacksonville Center
03:06PM 33.0567 -80.5306 128° Southeast 272 313 9,000 -840 Level Jacksonville Center
03:07PM 33.0072 -80.4575 129° Southeast 277 319 7,400 -1,800 Descending Jacksonville Center
03:08PM 32.9581 -80.3872 130° Southeast 282 325 5,400 -1,200 Descending Jacksonville Center
03:09PM 32.9147 -80.3192 127° Southeast 277 319 5,000 -420 Descending Jacksonville Center
03:10PM 32.8639 -80.2711 142° Southeast 272 313 4,600 -420 Descending Jacksonville Center
03:12PM 32.7780 -80.1133 125° Southeast  Level FlightAware Approximate